Time;durP1;ratioP1;P1;durP2;ratioP2;P2;SDS_P1;SDS_P2;PMS_P1;PMS_P2;Temp;Humidity;BMP_temperature;BMP_pressure;BME280_temperature;BME280_humidity;BME280_pressure;Samples;Min_cycle;Max_cycle;Signal;HPM_P1;HPM_P2
2021/08/03 00:01:15;;;;;;;3.50;2.03;;;;;;;10.25;100.00;93829.84;5074660;28;20199;-78
2021/08/03 00:03:51;;;;;;;4.00;2.00;;;;;;;10.22;100.00;93826.84;5074466;28;20671;-78
2021/08/03 00:06:18;;;;;;;2.47;1.90;;;;;;;10.23;100.00;93825.84;5074377;28;20198;-78
2021/08/03 00:08:49;;;;;;;4.67;2.20;;;;;;;10.17;100.00;93823.03;5074168;28;20243;-79
2021/08/03 00:11:17;;;;;;;20.00;5.40;;;;;;;10.12;100.00;93820.19;5074244;28;20217;-78
2021/08/03 00:13:43;;;;;;;15.70;8.30;;;;;;;10.07;100.00;93824.38;5073916;28;20665;-80
2021/08/03 00:16:12;;;;;;;179.07;74.07;;;;;;;10.03;100.00;93823.19;5074285;28;20566;-79
2021/08/03 00:18:40;;;;;;;4.22;2.10;;;;;;;9.99;100.00;93817.53;5073535;28;20529;-80
2021/08/03 00:21:08;;;;;;;9.33;1.87;;;;;;;9.96;100.00;93820.56;5073934;28;20677;-79
2021/08/03 00:23:37;;;;;;;2.97;2.00;;;;;;;9.90;100.00;93816.91;5073799;28;20210;-79
2021/08/03 00:26:04;;;;;;;3.13;2.27;;;;;;;9.90;100.00;93814.28;5073662;28;20569;-79
2021/08/03 00:28:32;;;;;;;4.23;2.30;;;;;;;9.87;100.00;93817.28;5074015;28;20223;-79
2021/08/03 00:30:59;;;;;;;3.57;2.20;;;;;;;9.84;100.00;93814.28;5073657;28;20657;-80
2021/08/03 00:33:26;;;;;;;6.80;2.40;;;;;;;9.80;100.00;93819.06;5073650;28;20194;-80
2021/08/03 00:35:53;;;;;;;6.13;2.30;;;;;;;9.82;100.00;93811.84;5073719;28;20198;-79
2021/08/03 00:38:19;;;;;;;5.80;2.30;;;;;;;9.83;100.00;93808.25;5073588;28;20285;-78
2021/08/03 00:40:53;;;;;;;4.03;2.23;;;;;;;9.81;100.00;93811.06;5073439;28;20195;-78
2021/08/03 00:43:20;;;;;;;8.47;2.30;;;;;;;9.84;100.00;93801.22;5073260;28;20233;-78
2021/08/03 00:45:46;;;;;;;11.47;2.67;;;;;;;9.80;100.00;93804.22;5073596;28;20557;-79
2021/08/03 00:48:13;;;;;;;7.77;3.00;;;;;;;9.77;100.00;93803.81;5073372;28;20707;-78
2021/08/03 00:50:41;;;;;;;6.77;2.70;;;;;;;9.71;100.00;93796.75;5073457;28;20199;-79
2021/08/03 00:53:07;;;;;;;6.07;2.70;;;;;;;9.76;100.00;93802.22;5073395;28;20198;-77
2021/08/03 00:55:35;;;;;;;5.33;2.40;;;;;;;9.74;100.00;93794.59;5073663;28;20206;-78
2021/08/03 00:58:02;;;;;;;3.53;2.60;;;;;;;9.76;100.00;93799.63;5073666;28;20198;-79
2021/08/03 01:00:28;;;;;;;7.13;2.80;;;;;;;9.78;100.00;93795.00;5073472;28;20206;-78
2021/08/03 01:02:55;;;;;;;4.00;2.40;;;;;;;9.76;100.00;93797.00;5073043;28;20206;-80
2021/08/03 01:05:21;;;;;;;5.10;2.43;;;;;;;9.78;100.00;93795.00;5072775;28;20577;-79
2021/08/03 01:08:01;;;;;;;13.53;3.10;;;;;;;9.79;100.00;93794.81;5072946;28;20570;-79
2021/08/03 01:10:34;;;;;;;6.17;2.43;;;;;;;9.78;100.00;93795.00;5073340;28;20199;-79
2021/08/03 01:13:07;;;;;;;8.90;3.20;;;;;;;9.87;100.00;93793.81;5073287;28;20207;-78
2021/08/03 01:15:48;;;;;;;5.97;2.50;;;;;;;9.84;100.00;93801.22;5073158;28;20199;-79
2021/08/03 01:18:18;;;;;;;3.27;2.30;;;;;;;9.78;100.00;93795.81;5073084;28;20207;-79
2021/08/03 01:21:06;;;;;;;4.50;2.70;;;;;;;9.80;100.00;93798.22;5073108;28;20203;-79
2021/08/03 01:23:57;;;;;;;6.87;2.67;;;;;;;9.79;100.00;93796.59;5072590;28;20684;-80
2021/08/03 01:26:43;;;;;;;4.43;2.23;;;;;;;9.84;100.00;93794.19;5072803;28;20557;-79
2021/08/03 01:29:12;;;;;;;5.03;2.47;;;;;;;9.84;100.00;93793.41;5072853;28;20222;-80
2021/08/03 01:31:46;;;;;;;3.13;2.43;;;;;;;9.88;100.00;93795.44;5072843;28;20202;-80
2021/08/03 01:34:15;;;;;;;4.97;2.53;;;;;;;9.87;100.00;93788.59;5072704;28;20679;-78
2021/08/03 01:36:46;;;;;;;4.87;2.50;;;;;;;9.89;100.00;93781.41;5072785;28;20665;-79
2021/08/03 01:39:16;;;;;;;3.70;2.30;;;;;;;9.88;100.00;93790.22;5072791;28;20560;-80
2021/08/03 01:41:46;;;;;;;4.10;2.27;;;;;;;9.88;100.00;93792.84;5072994;28;20823;-80
2021/08/03 01:44:15;;;;;;;4.43;2.30;;;;;;;9.84;100.00;93791.59;5072407;28;20242;-80
2021/08/03 01:46:42;;;;;;;8.47;3.03;;;;;;;9.82;100.00;93796.22;5072830;28;20561;-80
2021/08/03 01:49:12;;;;;;;2.53;2.00;;;;;;;9.81;100.00;93792.00;5072582;28;20237;-80
2021/08/03 01:51:43;;;;;;;6.93;2.43;;;;;;;9.79;100.00;93788.78;5072579;28;20194;-79
2021/08/03 01:54:10;;;;;;;3.03;1.97;;;;;;;9.78;100.00;93789.78;5072463;28;20195;-79
2021/08/03 01:56:37;;;;;;;4.50;2.00;;;;;;;9.77;100.00;93788.16;5072692;28;20203;-80
2021/08/03 01:59:03;;;;;;;6.63;2.20;;;;;;;9.77;100.00;93788.16;5072825;28;20249;-80
2021/08/03 02:01:33;;;;;;;4.33;2.10;;;;;;;9.77;100.00;93780.34;5072531;28;20198;-80
2021/08/03 02:04:01;;;;;;;4.50;2.33;;;;;;;9.78;100.00;93785.38;5072439;28;20202;-78
2021/08/03 02:06:28;;;;;;;3.33;2.30;;;;;;;9.82;100.00;93785.78;5072694;28;20205;-79
2021/08/03 02:08:55;;;;;;;3.80;2.43;;;;;;;9.80;100.00;93775.53;5072644;28;20249;-79
2021/08/03 02:11:24;;;;;;;3.43;2.33;;;;;;;9.86;100.00;93773.97;5072610;28;20225;-80
2021/08/03 02:13:51;;;;;;;3.27;2.57;;;;;;;9.88;100.00;93771.97;5072388;28;20199;-79
2021/08/03 02:16:18;;;;;;;3.77;2.37;;;;;;;9.89;100.00;93770.97;5074675;28;20210;-80
2021/08/03 02:18:47;;;;;;;5.40;2.60;;;;;;;9.89;100.00;93770.97;5075972;28;20657;-80
2021/08/03 02:21:15;;;;;;;9.70;2.83;;;;;;;9.89;100.00;93768.38;5076346;28;20247;-80
2021/08/03 02:23:42;;;;;;;5.87;2.47;;;;;;;9.88;100.00;93765.97;5076311;28;20194;-80
2021/08/03 02:26:09;;;;;;;3.83;2.73;;;;;;;9.85;100.00;93761.94;5076184;28;20236;-80
2021/08/03 02:28:36;;;;;;;5.83;2.17;;;;;;;9.78;100.00;93764.50;5076053;28;20227;-80
2021/08/03 02:31:05;;;;;;;3.13;2.20;;;;;;;9.70;100.00;93766.50;5075798;28;20210;-81
2021/08/03 02:33:37;;;;;;;7.00;2.20;;;;;;;9.68;100.00;93758.06;5076245;28;20199;-80
2021/08/03 02:36:08;;;;;;;4.47;2.60;;;;;;;9.59;100.00;93763.44;5075050;28;20437;-81
2021/08/03 02:38:39;;;;;;;3.07;2.10;;;;;;;9.58;100.00;93755.81;5075746;28;20592;-80
2021/08/03 02:41:06;;;;;;;8.57;2.47;;;;;;;9.65;100.00;93742.81;5075846;28;20199;-79
2021/08/03 02:43:34;;;;;;;5.57;2.00;;;;;;;9.60;100.00;93736.38;5075565;28;20720;-80
2021/08/03 02:46:03;;;;;;;3.73;2.30;;;;;;;9.57;100.00;93741.19;5075957;28;20209;-81
2021/08/03 02:48:30;;;;;;;5.13;2.30;;;;;;;9.63;100.00;93736.00;5075641;28;20226;-81
2021/08/03 02:50:58;;;;;;;7.37;2.60;;;;;;;9.66;100.00;93733.97;5075547;28;20204;-81
2021/08/03 02:53:29;;;;;;;7.33;2.63;;;;;;;9.67;100.00;93736.41;5075735;28;20195;-79
2021/08/03 02:56:01;;;;;;;3.70;2.17;;;;;;;9.63;100.00;93740.41;5075540;28;20199;-81
2021/08/03 02:58:33;;;;;;;4.03;2.10;;;;;;;9.67;100.00;93731.19;5075548;28;20669;-81
2021/08/03 03:01:01;;;;;;;5.90;2.20;;;;;;;9.65;100.00;93732.38;5075250;28;20195;-80
2021/08/03 03:03:30;;;;;;;5.43;2.20;;;;;;;9.63;100.00;93728.16;5075546;28;20195;-80
2021/08/03 03:06:00;;;;;;;4.97;2.23;;;;;;;9.56;100.00;93729.13;5075473;28;20206;-79
2021/08/03 03:08:30;;;;;;;3.17;1.87;;;;;;;9.60;100.00;93733.75;5075290;28;20696;-80
2021/08/03 03:11:00;;;;;;;5.63;2.00;;;;;;;9.65;100.00;93727.19;5075620;28;20202;-80
2021/08/03 03:13:30;;;;;;;6.30;2.00;;;;;;;9.65;100.00;93730.59;5075261;28;20210;-80
2021/08/03 03:15:58;;;;;;;2.40;1.80;;;;;;;9.60;100.00;93732.97;5075103;28;20213;-79
2021/08/03 03:18:25;;;;;;;4.80;1.97;;;;;;;9.56;100.00;93732.56;5075349;28;20565;-79
2021/08/03 03:20:53;;;;;;;3.13;2.60;;;;;;;9.48;100.00;93731.94;5075063;28;20225;-80
2021/08/03 03:23:22;;;;;;;2.77;1.93;;;;;;;9.42;100.00;93734.28;5075328;28;20202;-79
2021/08/03 03:25:52;;;;;;;2.80;2.03;;;;;;;9.42;100.00;93731.69;5074955;28;20205;-79
2021/08/03 03:28:23;;;;;;;3.77;1.80;;;;;;;9.38;100.00;93727.09;5074628;28;20229;-79
2021/08/03 03:30:50;;;;;;;5.17;1.87;;;;;;;9.36;100.00;93723.84;5074860;28;20203;-78
2021/08/03 03:33:17;;;;;;;7.57;2.13;;;;;;;9.34;100.00;93721.47;5075069;28;20203;-78
2021/08/03 03:35:44;;;;;;;2.90;2.07;;;;;;;9.37;100.00;93726.25;5074902;28;20214;-80
2021/08/03 03:38:12;;;;;;;3.87;2.20;;;;;;;9.30;100.00;93724.63;5075013;28;20209;-80
2021/08/03 03:40:40;;;;;;;4.53;2.37;;;;;;;9.30;100.00;93716.81;5074676;28;20202;-80
2021/08/03 03:43:08;;;;;;;4.27;2.27;;;;;;;9.29;100.00;93726.41;5074475;28;20604;-79
2021/08/03 03:45:35;;;;;;;15.80;3.20;;;;;;;9.32;100.00;93723.44;5074346;28;20191;-78
2021/08/03 03:48:05;;;;;;;5.13;2.37;;;;;;;9.40;100.00;93722.47;5074517;28;20631;-79
2021/08/03 03:50:36;;;;;;;3.80;2.30;;;;;;;9.41;100.00;93718.88;5074680;28;20194;-80
2021/08/03 03:53:08;;;;;;;4.90;2.30;;;;;;;9.42;100.00;93717.88;5074468;28;20210;-79
2021/08/03 03:55:34;;;;;;;5.67;2.37;;;;;;;9.43;100.00;93720.28;5074479;28;20202;-79
2021/08/03 03:58:02;;;;;;;2.20;2.00;;;;;;;9.40;100.00;93725.88;5074475;28;20194;-81
2021/08/03 04:00:35;;;;;;;6.73;2.10;;;;;;;9.41;100.00;93726.69;5074374;28;20198;-80
2021/08/03 04:03:04;;;;;;;4.43;2.20;;;;;;;9.41;100.00;93729.31;5074567;28;20233;-80
2021/08/03 04:05:31;;;;;;;6.33;2.30;;;;;;;9.40;100.00;93725.06;5074338;28;20194;-80
2021/08/03 04:07:57;;;;;;;5.05;2.80;;;;;;;9.42;100.00;93728.28;5073664;28;20445;-79
2021/08/03 04:10:32;;;;;;;3.23;2.50;;;;;;;9.42;100.00;93725.69;5074110;28;20671;-79
2021/08/03 04:12:59;;;;;;;5.47;2.20;;;;;;;9.44;100.00;93726.28;5074029;28;20202;-80
2021/08/03 04:15:25;;;;;;;6.60;1.97;;;;;;;9.48;100.00;93721.50;5074396;28;20269;-79
2021/08/03 04:17:53;;;;;;;6.43;2.10;;;;;;;9.50;100.00;93712.47;5074202;28;20203;-80
2021/08/03 04:20:19;;;;;;;4.60;2.67;;;;;;;9.54;100.00;93715.50;5073835;28;20202;-79
2021/08/03 04:22:46;;;;;;;9.37;2.43;;;;;;;9.55;100.00;93712.69;5074044;28;20203;-79
2021/08/03 04:25:12;;;;;;;6.40;2.70;;;;;;;9.61;100.00;93711.94;5073614;28;20225;-79
2021/08/03 04:27:39;;;;;;;7.63;2.33;;;;;;;9.65;100.00;93714.16;5073741;28;20206;-79
2021/08/03 04:30:08;;;;;;;4.20;2.30;;;;;;;9.70;100.00;93716.97;5073989;28;20582;-78
2021/08/03 04:32:34;;;;;;;6.33;2.43;;;;;;;9.72;100.00;93720.16;5073800;28;20198;-79
2021/08/03 04:35:02;;;;;;;5.33;2.33;;;;;;;9.75;100.00;93722.41;5073729;28;20202;-79
2021/08/03 04:37:29;;;;;;;3.53;2.27;;;;;;;9.77;100.00;93717.78;5073375;28;20657;-79
2021/08/03 04:39:55;;;;;;;5.05;2.47;;;;;;;9.81;100.00;93717.19;5072751;28;20430;-79
2021/08/03 04:42:22;;;;;;;4.30;2.47;;;;;;;9.90;100.00;93717.81;5073504;28;20210;-80
2021/08/03 04:44:48;;;;;;;2.97;2.10;;;;;;;9.93;100.00;93721.84;5073537;28;20557;-79
2021/08/03 04:47:14;;;;;;;6.03;2.20;;;;;;;9.96;100.00;93722.25;5073632;28;20203;-79
2021/08/03 04:49:41;;;;;;;7.63;2.30;;;;;;;10.02;100.00;93732.88;5073443;28;20231;-78
2021/08/03 04:52:09;;;;;;;5.88;2.33;;;;;;;10.08;100.00;93721.66;5073248;28;20434;-78
2021/08/03 04:54:35;;;;;;;3.43;2.50;;;;;;;10.12;100.00;93722.88;5073262;28;20672;-80
2021/08/03 04:57:01;;;;;;;3.30;2.10;;;;;;;10.17;100.00;93723.06;5073222;28;20195;-78
2021/08/03 04:59:28;;;;;;;3.67;2.20;;;;;;;10.21;100.00;93716.47;5073377;28;20195;-79
2021/08/03 05:01:54;;;;;;;3.13;2.43;;;;;;;10.27;100.00;93714.84;5073364;28;20627;-78
2021/08/03 05:04:21;;;;;;;6.40;2.33;;;;;;;10.27;100.00;93712.25;5073310;28;20206;-81
2021/08/03 05:06:47;;;;;;;9.70;2.70;;;;;;;10.27;100.00;93714.84;5073241;28;20206;-78
2021/08/03 05:09:15;;;;;;;5.73;2.50;;;;;;;10.34;100.00;93716.50;5073014;28;20227;-78
2021/08/03 05:11:41;;;;;;;6.23;2.23;;;;;;;10.32;100.00;93712.47;5073274;28;20206;-78
2021/08/03 05:14:08;;;;;;;4.33;2.30;;;;;;;10.39;100.00;93700.22;5072942;28;20649;-80
2021/08/03 05:16:34;;;;;;;5.60;2.50;;;;;;;10.48;100.00;93701.63;5073277;28;20209;-79
2021/08/03 05:19:00;;;;;;;3.83;2.20;;;;;;;10.57;100.00;93694.41;5073182;28;20226;-79
2021/08/03 05:21:27;;;;;;;7.47;2.57;;;;;;;10.68;100.00;93699.00;5073019;28;20203;-77
2021/08/03 05:23:53;;;;;;;4.97;2.47;;;;;;;10.78;100.00;93700.41;5072835;28;20199;-80
2021/08/03 05:26:21;;;;;;;7.67;2.50;;;;;;;10.89;100.00;93697.16;5073131;28;20207;-80
2021/08/03 05:28:47;;;;;;;2.53;2.10;;;;;;;10.98;100.00;93689.94;5072710;28;20308;-79
2021/08/03 05:31:14;;;;;;;3.67;2.20;;;;;;;11.06;100.00;93692.31;5073014;28;20577;-80
2021/08/03 05:33:40;;;;;;;3.60;2.40;;;;;;;11.02;100.00;93686.69;5072914;28;20198;-79
2021/08/03 05:36:07;;;;;;;4.43;2.17;;;;;;;11.21;100.00;93689.47;5072555;28;20909;-80
2021/08/03 05:38:34;;;;;;;3.27;2.00;;;;;;;11.31;100.00;93687.22;5072739;28;20445;-79
2021/08/03 05:41:00;;;;;;;7.63;2.33;;;;;;;11.42;100.00;93694.41;5072965;28;20202;-78
2021/08/03 05:43:28;;;;;;;3.53;1.80;;;;;;;11.45;100.00;93686.13;5072697;28;20230;-79
2021/08/03 05:45:55;;;;;;;3.83;1.83;;;;;;;11.53;100.00;93687.72;5072759;28;20207;-79
2021/08/03 05:48:21;;;;;;;6.70;2.03;;;;;;;11.65;100.00;93682.63;5072633;28;20592;-79
2021/08/03 05:50:47;;;;;;;4.53;2.40;;;;;;;11.70;100.00;93693.25;5075309;28;20256;-80
2021/08/03 05:53:14;;;;;;;1.93;1.63;;;;;;;11.87;100.00;93698.00;5076798;28;20604;-79
2021/08/03 05:55:41;;;;;;;2.40;1.53;;;;;;;11.96;100.00;93702.03;5076567;28;20205;-79
2021/08/03 05:58:07;;;;;;;4.03;1.70;;;;;;;11.89;100.00;93694.19;5076967;28;20225;-78
2021/08/03 06:00:35;;;;;;;5.23;1.50;;;;;;;12.08;100.00;93689.84;5076645;28;20206;-79
2021/08/03 06:03:02;;;;;;;2.90;1.90;;;;;;;12.27;100.00;93695.97;5076838;28;20194;-80
2021/08/03 06:05:31;;;;;;;5.53;1.80;;;;;;;12.42;100.00;93697.47;5076153;28;20198;-79
2021/08/03 06:08:00;;;;;;;3.00;1.90;;;;;;;12.53;100.00;93696.78;5076783;28;20202;-79
2021/08/03 06:10:27;;;;;;;4.63;1.77;;;;;;;12.76;100.00;93696.19;5076568;28;20226;-80
2021/08/03 06:12:56;;;;;;;4.15;1.80;;;;;;;13.07;100.00;93697.09;5076419;28;20209;-80
2021/08/03 06:15:22;;;;;;;2.73;1.77;;;;;;;13.41;100.00;93697.56;5076315;28;20569;-80
2021/08/03 06:17:56;;;;;;;3.50;1.45;;;;;;;13.71;100.00;93687.09;5076368;28;20568;-80
2021/08/03 06:20:23;;;;;;;5.05;1.40;;;;;;;13.79;100.00;93693.84;5076137;28;20209;-79
2021/08/03 06:22:51;;;;;;;3.80;1.40;;;;;;;13.69;100.00;93692.56;5075488;28;20453;-81
2021/08/03 06:25:17;;;;;;;1.50;1.20;;;;;;;13.79;100.00;93696.47;5076302;28;20206;-80
2021/08/03 06:27:44;;;;;;;3.60;1.40;;;;;;;13.79;100.00;93707.78;5076083;28;20195;-81
2021/08/03 06:30:12;;;;;;;2.08;1.10;;;;;;;13.95;100.00;93711.59;5076096;28;20249;-81
2021/08/03 06:32:41;;;;;;;2.80;1.33;;;;;;;13.87;100.00;93707.47;5075819;28;20195;-81
2021/08/03 06:35:11;;;;;;;4.68;1.27;;;;;;;13.85;100.00;93712.13;5075924;28;20711;-82
2021/08/03 06:37:37;;;;;;;3.55;1.42;;;;;;;13.92;100.00;93714.66;5076114;28;20542;-81
2021/08/03 06:40:05;;;;;;;6.35;1.48;;;;;;;14.26;100.00;93715.03;5075881;28;20206;-80
2021/08/03 06:42:41;;;;;;;2.72;1.38;;;;;;;14.78;100.00;93712.63;5075711;28;20550;-80
2021/08/03 06:45:13;;;;;;;1.85;1.10;;;;;;;15.40;100.00;93716.59;5075715;28;20252;-80
2021/08/03 06:47:49;;;;;;;2.65;1.23;;;;;;;15.64;100.00;93713.91;5076024;28;20209;-80
2021/08/03 06:50:20;;;;;;;3.13;1.00;;;;;;;15.65;100.00;93712.88;5075625;28;20230;-80
2021/08/03 06:52:49;;;;;;;2.50;1.30;;;;;;;15.93;100.00;93706.06;5075794;28;20205;-80
2021/08/03 06:55:18;;;;;;;2.85;1.30;;;;;;;15.85;100.00;93702.78;5075262;28;20210;-80
2021/08/03 06:57:51;;;;;;;2.90;1.10;;;;;;;16.51;100.00;93706.81;5075372;28;20206;-81
2021/08/03 07:00:19;;;;;;;3.05;1.02;;;;;;;16.91;100.00;93711.94;5075655;28;20234;-81
2021/08/03 07:02:48;;;;;;;4.55;1.15;;;;;;;17.05;100.00;93711.63;5074871;28;20603;-80
2021/08/03 07:05:20;;;;;;;1.92;1.17;;;;;;;17.10;100.00;93711.69;5075614;28;20604;-80
2021/08/03 07:07:46;;;;;;;2.03;1.10;;;;;;;17.16;100.00;93713.38;5074961;28;20481;-81
2021/08/03 07:10:14;;;;;;;1.17;1.00;;;;;;;17.24;100.00;93714.81;5074987;28;20245;-81
2021/08/03 07:12:43;;;;;;;2.30;1.10;;;;;;;17.02;100.00;93723.47;5075552;28;20203;-81
2021/08/03 07:15:11;;;;;;;3.72;1.50;;;;;;;17.00;100.00;93723.69;5075250;28;20677;-81
2021/08/03 07:17:40;;;;;;;7.72;1.20;;;;;;;16.46;100.00;93712.78;5075142;28;20195;-80
2021/08/03 07:20:09;;;;;;;3.90;1.10;;;;;;;16.94;100.00;93716.75;5074882;28;20654;-82
2021/08/03 07:22:38;;;;;;;1.50;1.17;;;;;;;17.60;100.00;93709.97;5075082;28;20210;-81
2021/08/03 07:25:07;;;;;;;0.85;0.85;;;;;;;17.90;100.00;93712.19;5075140;28;20206;-80
2021/08/03 07:27:34;;;;;;;1.30;1.02;;;;;;;18.10;99.75;93712.44;5075191;28;20198;-80
2021/08/03 07:30:00;;;;;;;2.65;1.10;;;;;;;17.68;100.00;93709.53;5074972;28;20225;-80
2021/08/03 07:32:27;;;;;;;2.97;1.05;;;;;;;17.49;100.00;93709.06;5075145;28;20202;-80
2021/08/03 07:34:53;;;;;;;1.83;0.88;;;;;;;17.99;100.00;93713.38;5074940;28;20205;-80
2021/08/03 07:37:20;;;;;;;4.38;0.95;;;;;;;17.86;100.00;93703.16;5074791;28;20202;-80
2021/08/03 07:39:48;;;;;;;1.58;0.98;;;;;;;18.28;100.00;93702.53;5074802;28;20207;-80
2021/08/03 07:42:14;;;;;;;1.38;0.90;;;;;;;18.50;98.11;93710.41;5074410;28;20202;-81
2021/08/03 07:44:42;;;;;;;4.75;1.00;;;;;;;18.53;97.51;93709.13;5074392;28;20234;-81
2021/08/03 07:47:09;;;;;;;1.67;1.10;;;;;;;18.27;100.00;93706.25;5074681;28;20296;-81
2021/08/03 07:49:37;;;;;;;1.42;1.08;;;;;;;18.06;100.00;93700.75;5074289;28;20616;-80
2021/08/03 07:52:04;;;;;;;4.45;1.25;;;;;;;18.24;100.00;93707.53;5074812;28;20207;-81
2021/08/03 07:54:30;;;;;;;1.63;1.10;;;;;;;18.47;96.95;93708.28;5074593;28;20194;-82
2021/08/03 07:56:58;;;;;;;3.00;0.80;;;;;;;18.81;97.12;93706.16;5074350;28;20199;-82
2021/08/03 07:59:24;;;;;;;3.13;1.33;;;;;;;18.74;97.98;93705.59;5074545;28;20206;-81
2021/08/03 08:01:51;;;;;;;2.55;1.13;;;;;;;18.86;97.24;93708.09;5074386;28;20209;-82
2021/08/03 08:04:17;;;;;;;3.92;1.00;;;;;;;18.58;97.32;93704.66;5074128;28;20687;-83
2021/08/03 08:06:44;;;;;;;2.97;1.08;;;;;;;18.85;97.76;93711.78;5074559;28;20202;-82
2021/08/03 08:09:10;;;;;;;1.50;1.00;;;;;;;19.29;97.82;93710.75;5074191;28;20202;-82
2021/08/03 08:11:37;;;;;;;2.85;1.42;;;;;;;19.27;96.21;93715.50;5074130;28;20203;-83
2021/08/03 08:14:05;;;;;;;2.97;1.40;;;;;;;19.49;97.58;93713.50;5073002;28;20210;-82
2021/08/03 08:16:31;;;;;;;1.65;1.20;;;;;;;19.78;96.22;93705.19;5074104;28;20241;-83
2021/08/03 08:18:58;;;;;;;7.55;1.20;;;;;;;19.37;91.54;93711.06;5073555;28;20210;-82
2021/08/03 08:21:24;;;;;;;3.65;1.20;;;;;;;19.45;91.91;93715.09;5074166;28;20211;-81
2021/08/03 08:23:51;;;;;;;1.75;0.95;;;;;;;19.54;91.97;93712.75;5074138;28;20268;-81
2021/08/03 08:26:17;;;;;;;1.55;1.00;;;;;;;19.13;94.86;93717.81;5073796;28;20701;-83
2021/08/03 08:28:44;;;;;;;3.63;1.20;;;;;;;18.79;94.60;93718.06;5073813;28;20206;-81
2021/08/03 08:31:11;;;;;;;2.60;1.42;;;;;;;19.04;94.11;93712.97;5073745;28;20253;-82
2021/08/03 08:33:38;;;;;;;2.60;1.38;;;;;;;19.57;90.04;93712.25;5073473;28;20588;-83
2021/08/03 08:36:04;;;;;;;1.98;1.17;;;;;;;19.43;90.50;93709.22;5073743;28;20218;-83
2021/08/03 08:38:31;;;;;;;4.47;1.35;;;;;;;19.86;89.58;93698.59;5073746;28;20685;-83
2021/08/03 08:40:57;;;;;;;3.92;1.27;;;;;;;20.08;87.65;93701.03;5073900;28;20198;-83
2021/08/03 08:43:26;;;;;;;2.35;1.20;;;;;;;19.73;93.30;93710.44;5074164;28;20230;-82
2021/08/03 08:45:55;;;;;;;2.25;1.10;;;;;;;19.76;89.02;93709.94;5073522;28;20199;-82
2021/08/03 08:48:23;;;;;;;2.20;1.35;;;;;;;19.49;83.85;93716.16;5073391;28;20230;-83
2021/08/03 08:50:53;;;;;;;1.80;1.10;;;;;;;19.64;87.97;93699.53;5073362;28;20250;-82
2021/08/03 08:53:20;;;;;;;2.95;1.48;;;;;;;19.67;89.99;93706.16;5073617;28;20241;-82
2021/08/03 08:55:47;;;;;;;3.05;1.02;;;;;;;19.54;95.25;93702.94;5073349;28;20225;-81
2021/08/03 08:58:13;;;;;;;2.35;1.08;;;;;;;19.70;84.21;93705.66;5073266;28;20281;-81
2021/08/03 09:00:40;;;;;;;2.63;1.00;;;;;;;18.88;85.96;93703.34;5073178;28;20207;-80
2021/08/03 09:03:07;;;;;;;2.05;1.10;;;;;;;18.48;90.77;93710.69;5073390;28;20218;-80
2021/08/03 09:05:39;;;;;;;4.90;1.27;;;;;;;18.34;86.65;93712.13;5073200;28;20211;-81
2021/08/03 09:08:07;;;;;;;2.55;0.90;;;;;;;18.57;95.75;93718.13;5073154;28;20241;-82
2021/08/03 09:10:37;;;;;;;2.33;1.35;;;;;;;18.89;93.96;93714.75;5072121;28;20908;-81
2021/08/03 09:13:06;;;;;;;3.20;0.85;;;;;;;19.03;87.66;93719.34;5073074;28;20199;-82
2021/08/03 09:15:35;;;;;;;2.97;1.00;;;;;;;18.57;90.34;93720.78;5073249;28;20539;-81
2021/08/03 09:18:13;;;;;;;2.60;1.20;;;;;;;18.47;87.36;93714.38;5073283;28;20657;-80
2021/08/03 09:20:42;;;;;;;3.42;1.63;;;;;;;17.98;90.09;93711.75;5073105;28;20233;-80
2021/08/03 09:23:09;;;;;;;2.63;1.25;;;;;;;17.83;91.62;93714.19;5072813;28;20202;-80
2021/08/03 09:25:35;;;;;;;1.52;0.90;;;;;;;17.31;90.69;93718.84;5071529;28;20205;-80
2021/08/03 09:28:03;;;;;;;3.65;1.00;;;;;;;17.33;96.57;93716.75;5073032;28;20210;-80
2021/08/03 09:30:31;;;;;;;1.45;0.90;;;;;;;17.36;97.91;93718.91;5072940;28;20230;-82
2021/08/03 09:32:58;;;;;;;2.55;0.93;;;;;;;17.37;98.58;93720.53;5069058;28;20198;-80
2021/08/03 09:35:27;;;;;;;3.97;1.10;;;;;;;17.23;100.00;93723.75;5067658;28;20195;-81
2021/08/03 09:37:58;;;;;;;2.08;1.27;;;;;;;16.86;100.00;93727.69;5070485;28;20204;-82
2021/08/03 09:40:26;;;;;;;8.90;1.70;;;;;;;16.20;100.00;93743.16;5065101;28;20601;-83
2021/08/03 09:43:00;;;;;;;3.15;1.50;;;;;;;15.84;100.00;93745.94;5069668;28;20233;-83
2021/08/03 09:45:30;;;;;;;3.05;1.58;;;;;;;15.64;100.00;93762.09;5050982;28;20848;-79
2021/08/03 09:48:11;;;;;;;7.25;2.20;;;;;;;15.17;100.00;93773.44;5052177;28;20688;-81
2021/08/03 09:50:52;;;;;;;12.43;1.70;;;;;;;14.88;100.00;93762.00;5050440;28;20282;-81
2021/08/03 09:53:43;;;;;;;2.72;1.73;;;;;;;14.62;100.00;93760.56;5052930;28;20207;-79
2021/08/03 09:56:12;;;;;;;4.90;2.13;;;;;;;14.49;100.00;93758.94;5052832;28;20222;-77
2021/08/03 09:58:56;;;;;;;3.30;1.95;;;;;;;14.32;100.00;93753.53;5052435;28;20432;-76
2021/08/03 10:01:31;;;;;;;3.13;1.73;;;;;;;14.24;100.00;93754.63;5052802;28;20203;-78
2021/08/03 10:03:59;;;;;;;1.88;1.27;;;;;;;14.24;100.00;93754.63;5052740;28;20194;-78
2021/08/03 10:06:26;;;;;;;2.75;2.20;;;;;;;14.33;100.00;93757.75;5052651;28;20207;-81
2021/08/03 10:08:55;;;;;;;5.63;2.15;;;;;;;14.49;100.00;93755.50;5052649;28;20203;-81
2021/08/03 10:11:23;;;;;;;2.78;1.67;;;;;;;14.62;100.00;93755.31;5052390;28;20590;-80
2021/08/03 10:13:51;;;;;;;3.35;1.90;;;;;;;14.72;100.00;93750.34;5052698;28;20207;-81
2021/08/03 10:16:17;;;;;;;3.42;1.92;;;;;;;14.68;100.00;93754.44;5052640;28;20199;-81
2021/08/03 10:18:47;;;;;;;2.80;2.00;;;;;;;14.55;100.00;93749.34;5052440;28;20199;-79
2021/08/03 10:21:21;;;;;;;5.10;2.03;;;;;;;14.78;100.00;93732.84;5052462;28;20200;-80
2021/08/03 10:23:48;;;;;;;3.38;2.05;;;;;;;15.17;100.00;93734.00;5052461;28;20214;-80
2021/08/03 10:26:17;;;;;;;4.22;2.10;;;;;;;15.58;100.00;93728.78;5052508;28;20215;-80
2021/08/03 10:28:43;;;;;;;2.85;2.00;;;;;;;16.10;100.00;93727.97;5052114;28;20431;-80
2021/08/03 10:31:36;;;;;;;4.80;1.98;;;;;;;16.59;100.00;93724.88;5052273;28;20234;-81
2021/08/03 10:34:02;;;;;;;3.85;2.05;;;;;;;16.99;100.00;93727.38;5052383;28;20210;-79
2021/08/03 10:36:51;;;;;;;4.10;2.00;;;;;;;17.13;100.00;93733.09;5052974;28;20199;-81
2021/08/03 10:39:20;;;;;;;2.58;1.48;;;;;;;16.85;100.00;93728.72;5055763;28;20669;-80
2021/08/03 10:42:13;;;;;;;2.15;1.75;;;;;;;16.61;100.00;93734.13;5055082;28;20448;-81
2021/08/03 10:44:42;;;;;;;3.15;1.70;;;;;;;16.02;100.00;93739.69;5055718;28;20235;-80
2021/08/03 10:47:46;;;;;;;2.92;1.60;;;;;;;15.57;100.00;93724.59;5056007;28;20230;-80
2021/08/03 10:50:16;;;;;;;3.17;1.80;;;;;;;15.79;100.00;93731.88;5055850;28;20777;-79
2021/08/03 10:52:53;;;;;;;3.67;1.55;;;;;;;16.08;100.00;93719.50;5055823;28;20253;-80
2021/08/03 10:55:34;;;;;;;5.72;1.70;;;;;;;16.13;100.00;93718.81;5055551;28;20221;-79
2021/08/03 10:58:28;;;;;;;3.47;1.73;;;;;;;16.10;100.00;93722.69;5055870;28;20214;-79
2021/08/03 11:00:57;;;;;;;5.63;1.55;;;;;;;15.72;100.00;93721.44;5055328;28;20200;-79
2021/08/03 11:03:42;;;;;;;4.00;1.90;;;;;;;15.52;100.00;93722.63;5055390;28;20203;-79
2021/08/03 11:06:33;;;;;;;2.60;1.70;;;;;;;15.42;100.00;93732.97;5055654;28;20203;-79
2021/08/03 11:09:00;;;;;;;3.10;1.98;;;;;;;15.46;100.00;93728.81;5045751;28;20258;-80
2021/08/03 11:11:28;;;;;;;3.65;1.50;;;;;;;15.70;100.00;93723.50;5055285;28;20227;-81
2021/08/03 11:13:57;;;;;;;4.78;2.28;;;;;;;16.03;100.00;93733.38;5055111;28;20242;-81
2021/08/03 11:16:54;;;;;;;2.40;1.92;;;;;;;16.29;100.00;93728.59;5055480;28;20372;-80
2021/08/03 11:19:36;;;;;;;2.75;1.90;;;;;;;15.67;100.00;93734.50;5054964;28;20647;-80
2021/08/03 11:22:04;;;;;;;3.70;2.22;;;;;;;15.72;100.00;93731.97;5055210;28;20203;-80
2021/08/03 11:24:36;;;;;;;5.32;2.10;;;;;;;15.71;100.00;93733.00;5055120;28;20214;-80
2021/08/03 11:27:03;;;;;;;3.30;2.15;;;;;;;15.46;100.00;93734.09;5075120;28;20218;-80
2021/08/03 11:29:37;;;;;;;3.83;2.78;;;;;;;15.69;100.00;93727.19;5075202;28;20225;-82
2021/08/03 11:32:05;;;;;;;6.05;2.25;;;;;;;15.94;100.00;93734.81;5074916;28;20226;-80
2021/08/03 11:34:34;;;;;;;3.05;2.20;;;;;;;15.62;100.00;93737.03;5074957;28;20226;-80
2021/08/03 11:37:14;;;;;;;3.50;2.17;;;;;;;15.78;100.00;93731.06;5074872;28;20539;-80
2021/08/03 11:39:45;;;;;;;3.65;2.10;;;;;;;15.76;100.00;93713.91;5075038;28;20206;-80